Time;durP1;ratioP1;P1;durP2;ratioP2;P2;SDS_P1;SDS_P2;PMS_P1;PMS_P2;Temp;Humidity;BMP_temperature;BMP_pressure;BME280_temperature;BME280_humidity;BME280_pressure;Samples;Min_cycle;Max_cycle;Signal;HPM_P1;HPM_P2
2023/05/17 00:01:12;;;;;;;5.10;4.60;;;;;;;11.54;100.00;97435.13;106807;1275;24052;-76
2023/05/17 00:03:40;;;;;;;4.60;4.20;;;;;;;11.55;100.00;97431.60;106815;1275;24246;-77
2023/05/17 00:06:08;;;;;;;4.50;3.90;;;;;;;11.52;100.00;97432.11;106824;1275;25452;-76
2023/05/17 00:08:36;;;;;;;4.70;4.20;;;;;;;11.51;100.00;97432.27;106814;1275;24055;-76
2023/05/17 00:11:04;;;;;;;4.10;3.70;;;;;;;11.51;100.00;97431.88;107089;1275;24397;-76
2023/05/17 00:13:32;;;;;;;6.90;4.30;;;;;;;11.51;100.00;97436.52;106818;1275;24036;-76
2023/05/17 00:16:00;;;;;;;5.10;4.10;;;;;;;11.47;100.00;97434.42;106881;1275;24258;-76
2023/05/17 00:18:28;;;;;;;4.90;4.30;;;;;;;11.46;100.00;97440.03;106831;1275;23122;-77
2023/05/17 00:20:56;;;;;;;5.70;4.40;;;;;;;11.45;100.00;97440.39;106830;1275;24217;-77
2023/05/17 00:23:24;;;;;;;8.00;5.10;;;;;;;11.44;100.00;97443.64;106867;1275;24199;-77
2023/05/17 00:25:52;;;;;;;7.90;5.10;;;;;;;11.44;100.00;97440.41;106876;1275;25395;-77
2023/05/17 00:28:20;;;;;;;5.70;4.60;;;;;;;11.40;100.00;97431.94;106854;1275;23145;-77
2023/05/17 00:30:48;;;;;;;5.50;4.30;;;;;;;11.31;100.00;97422.27;106809;1275;22641;-77
2023/05/17 00:33:16;;;;;;;5.30;4.40;;;;;;;11.35;100.00;97423.02;106857;1275;22553;-77
2023/05/17 00:35:44;;;;;;;5.20;4.20;;;;;;;11.33;100.00;97419.13;106848;1275;23981;-77
2023/05/17 00:38:12;;;;;;;3.90;3.50;;;;;;;11.33;100.00;97421.08;106883;1275;22518;-77
2023/05/17 00:40:40;;;;;;;4.00;3.60;;;;;;;11.33;100.00;97426.54;106707;1275;22518;-77
2023/05/17 00:43:08;;;;;;;3.80;3.10;;;;;;;11.34;100.00;97427.35;106824;1275;22511;-77
2023/05/17 00:45:36;;;;;;;3.20;2.90;;;;;;;11.32;100.00;97435.82;106861;1275;24368;-77
2023/05/17 00:48:04;;;;;;;4.90;3.10;;;;;;;11.30;100.00;97441.43;106875;1275;25252;-77
2023/05/17 00:50:33;;;;;;;3.40;3.10;;;;;;;11.31;100.00;97440.20;106927;1275;25395;-77
2023/05/17 00:53:01;;;;;;;3.30;3.00;;;;;;;11.31;100.00;97428.65;107121;1275;22518;-77
2023/05/17 00:55:29;;;;;;;3.40;3.10;;;;;;;11.26;100.00;97426.73;107147;1275;22532;-77
2023/05/17 00:57:57;;;;;;;4.60;3.20;;;;;;;11.23;100.00;97420.52;106843;1266;22988;-77
2023/05/17 01:00:25;;;;;;;3.40;3.10;;;;;;;11.20;100.00;97421.84;106882;1275;22610;-77
2023/05/17 01:02:53;;;;;;;4.90;3.10;;;;;;;11.19;100.00;97420.94;107077;1275;25395;-77
2023/05/17 01:05:23;;;;;;;4.30;3.20;;;;;;;11.20;100.00;97425.36;107036;1275;22602;-77
2023/05/17 01:07:51;;;;;;;3.90;2.90;;;;;;;11.16;100.00;97423.58;107065;1275;23222;-77
2023/05/17 01:10:20;;;;;;;3.50;3.20;;;;;;;11.14;100.00;97418.71;107031;1275;22942;-77
2023/05/17 01:13:05;;;;;;;8.50;2.90;;;;;;;11.11;100.00;97418.77;107062;1275;24361;-75
2023/05/17 01:15:37;;;;;;;3.90;3.10;;;;;;;11.08;100.00;97418.41;106817;1275;24065;-77
2023/05/17 01:18:29;;;;;;;3.20;2.80;;;;;;;11.05;100.00;97414.88;107082;1275;24183;-74
2023/05/17 01:21:00;;;;;;;3.30;3.00;;;;;;;11.07;100.00;97416.98;106783;1275;24111;-75
2023/05/17 01:23:53;;;;;;;3.40;3.10;;;;;;;11.05;100.00;97425.73;106836;1275;22643;-76
2023/05/17 01:26:42;;;;;;;3.40;2.70;;;;;;;11.06;100.00;97423.54;106835;1275;22521;-76
2023/05/17 01:29:13;;;;;;;4.50;3.30;;;;;;;11.05;100.00;97425.92;106796;1275;22940;-75
2023/05/17 01:31:43;;;;;;;3.30;3.10;;;;;;;11.04;100.00;97429.95;106865;1275;23972;-76
2023/05/17 01:34:11;;;;;;;4.70;3.30;;;;;;;11.02;100.00;97429.09;106947;1264;25347;-77
2023/05/17 01:36:41;;;;;;;3.10;2.60;;;;;;;10.98;100.00;97428.84;106909;1275;24432;-76
2023/05/17 01:39:10;;;;;;;4.50;2.70;;;;;;;10.94;100.00;97428.67;106868;1275;24652;-77
2023/05/17 01:41:45;;;;;;;3.50;3.00;;;;;;;10.93;100.00;97430.16;106833;1275;25368;-77
2023/05/17 01:44:25;;;;;;;5.00;2.80;;;;;;;10.88;100.00;97430.51;107057;1275;24083;-77
2023/05/17 01:47:10;;;;;;;3.10;2.60;;;;;;;10.87;100.00;97431.40;107132;1275;22955;-77
2023/05/17 01:49:40;;;;;;;2.70;2.50;;;;;;;10.84;100.00;97432.55;107102;1275;22538;-78
2023/05/17 01:52:44;;;;;;;3.10;2.90;;;;;;;10.84;100.00;97439.17;107211;1275;23466;-78
2023/05/17 01:55:21;;;;;;;6.50;2.70;;;;;;;10.86;100.00;97437.09;106896;1275;22649;-78
2023/05/17 01:57:52;;;;;;;3.20;2.90;;;;;;;10.83;100.00;97434.20;107001;1259;22519;-77
2023/05/17 02:00:24;;;;;;;3.10;2.70;;;;;;;10.82;100.00;97437.89;106709;1274;22536;-78
2023/05/17 02:02:52;;;;;;;2.90;2.50;;;;;;;10.81;100.00;97434.09;106616;1275;22923;-78
2023/05/17 02:05:20;;;;;;;3.20;2.80;;;;;;;10.82;100.00;97434.98;107120;1275;22779;-78
2023/05/17 02:07:48;;;;;;;3.30;2.60;;;;;;;10.82;100.00;97440.05;107103;1275;22644;-78
2023/05/17 02:10:17;;;;;;;5.40;2.90;;;;;;;10.81;100.00;97436.14;107029;1275;25246;-78
2023/05/17 02:12:45;;;;;;;4.50;3.20;;;;;;;10.80;100.00;97442.36;106995;1275;22582;-77
2023/05/17 02:15:15;;;;;;;5.30;3.40;;;;;;;10.80;100.00;97435.10;106971;1275;23895;-77
2023/05/17 02:17:43;;;;;;;7.20;4.50;;;;;;;10.77;100.00;97436.95;106647;1275;22524;-77
2023/05/17 02:20:11;;;;;;;8.30;3.90;;;;;;;10.77;100.00;97440.05;106753;1274;25419;-78
2023/05/17 02:22:39;;;;;;;5.30;4.00;;;;;;;10.75;100.00;97444.02;106803;1275;24310;-78
2023/05/17 02:25:08;;;;;;;5.90;4.10;;;;;;;10.76;100.00;97446.14;106806;1275;22515;-78
2023/05/17 02:27:36;;;;;;;5.80;4.30;;;;;;;10.74;100.00;97450.08;106782;1275;22537;-79
2023/05/17 02:30:05;;;;;;;5.30;4.00;;;;;;;10.74;100.00;97454.29;106756;1275;22644;-78
2023/05/17 02:32:33;;;;;;;5.50;4.00;;;;;;;10.72;100.00;97454.50;106823;1275;24253;-79
2023/05/17 02:35:01;;;;;;;4.70;3.80;;;;;;;10.73;100.00;97453.92;106772;1275;22525;-80
2023/05/17 02:37:29;;;;;;;4.00;3.20;;;;;;;10.75;100.00;97456.63;106988;1275;25265;-78
2023/05/17 02:39:57;;;;;;;3.30;3.00;;;;;;;10.76;100.00;97456.70;106909;1275;22573;-79
2023/05/17 02:42:26;;;;;;;5.20;3.50;;;;;;;10.79;100.00;97459.92;107149;1275;23324;-79
2023/05/17 02:44:56;;;;;;;4.90;2.90;;;;;;;10.82;100.00;97460.09;106898;1275;26509;-77
2023/05/17 02:47:24;;;;;;;4.70;3.10;;;;;;;10.82;100.00;97464.14;106880;1275;22511;-77
2023/05/17 02:49:53;;;;;;;3.10;2.80;;;;;;;10.81;100.00;97467.20;106883;1275;22517;-77
2023/05/17 02:52:21;;;;;;;3.30;3.00;;;;;;;10.82;100.00;97470.55;106810;1275;22629;-78
2023/05/17 02:54:50;;;;;;;4.30;3.60;;;;;;;10.83;100.00;97469.39;106792;1275;22543;-79
2023/05/17 02:57:18;;;;;;;4.90;3.20;;;;;;;10.83;100.00;97471.98;106856;1275;22547;-77
2023/05/17 02:59:47;;;;;;;3.80;3.20;;;;;;;10.83;100.00;97472.21;106812;1275;25369;-78
2023/05/17 03:02:15;;;;;;;7.80;3.10;;;;;;;10.80;100.00;97468.35;107398;1263;22511;-79
2023/05/17 03:04:44;;;;;;;3.90;3.20;;;;;;;10.80;100.00;97470.02;106975;1275;22517;-79
2023/05/17 03:07:12;;;;;;;4.30;3.30;;;;;;;10.81;100.00;97466.33;106927;1275;23038;-80
2023/05/17 03:09:41;;;;;;;6.00;3.90;;;;;;;10.80;100.00;97457.89;106835;1272;25336;-78
2023/05/17 03:12:10;;;;;;;4.20;3.50;;;;;;;10.76;100.00;97445.33;106881;1275;23417;-77
2023/05/17 03:14:38;;;;;;;3.40;3.10;;;;;;;10.72;100.00;97444.95;106986;1275;22535;-76
2023/05/17 03:17:06;;;;;;;3.60;3.10;;;;;;;10.70;100.00;97452.61;106607;1275;22523;-77
2023/05/17 03:19:35;;;;;;;5.30;3.40;;;;;;;10.71;100.00;97454.61;106781;1275;22527;-77
2023/05/17 03:22:03;;;;;;;3.20;2.90;;;;;;;10.69;100.00;97453.05;106769;1274;22767;-77
2023/05/17 03:24:33;;;;;;;3.40;3.10;;;;;;;10.68;100.00;97457.88;106930;1275;24340;-77
2023/05/17 03:27:01;;;;;;;3.40;3.10;;;;;;;10.67;100.00;97458.44;106795;1275;22788;-77
2023/05/17 03:29:29;;;;;;;4.30;3.20;;;;;;;10.64;100.00;97455.59;106784;1275;24397;-77
2023/05/17 03:31:57;;;;;;;3.90;3.20;;;;;;;10.65;100.00;97458.40;106580;1272;22995;-77
2023/05/17 03:34:25;;;;;;;3.60;3.20;;;;;;;10.64;100.00;97456.27;106894;1275;23940;-77
2023/05/17 03:36:53;;;;;;;3.30;3.00;;;;;;;10.66;100.00;97457.07;106949;1275;22968;-77
2023/05/17 03:39:21;;;;;;;3.50;3.20;;;;;;;10.67;100.00;97460.71;106937;1275;22521;-78
2023/05/17 03:41:49;;;;;;;4.00;3.60;;;;;;;10.67;100.00;97466.14;106915;1272;24074;-79
2023/05/17 03:44:18;;;;;;;4.90;3.50;;;;;;;10.69;100.00;97471.48;107242;1275;24131;-79
2023/05/17 03:46:46;;;;;;;3.60;3.30;;;;;;;10.71;100.00;97477.38;107826;1275;22531;-78
2023/05/17 03:49:14;;;;;;;3.70;3.30;;;;;;;10.72;100.00;97482.90;106787;1275;22513;-78
2023/05/17 03:51:43;;;;;;;4.10;3.30;;;;;;;10.73;100.00;97492.07;106910;1275;22524;-78
2023/05/17 03:54:11;;;;;;;3.80;3.50;;;;;;;10.73;100.00;97493.54;106924;1275;25330;-79
2023/05/17 03:56:42;;;;;;;5.90;3.50;;;;;;;10.73;100.00;97489.54;106729;1269;22518;-78
2023/05/17 03:59:10;;;;;;;4.70;3.90;;;;;;;10.73;100.00;97488.65;106633;1275;22629;-80
2023/05/17 04:01:39;;;;;;;3.80;3.40;;;;;;;10.73;100.00;97479.42;106866;1275;22650;-80
2023/05/17 04:04:08;;;;;;;3.50;3.20;;;;;;;10.71;100.00;97482.11;106854;1275;22521;-78
2023/05/17 04:06:38;;;;;;;4.10;3.70;;;;;;;10.69;100.00;97484.54;106660;1275;22706;-80
2023/05/17 04:09:08;;;;;;;3.50;3.20;;;;;;;10.67;100.00;97482.98;106971;1275;22530;-78
2023/05/17 04:11:37;;;;;;;4.50;3.80;;;;;;;10.70;100.00;97484.81;106987;1275;24375;-76
2023/05/17 04:14:05;;;;;;;5.40;3.70;;;;;;;10.70;100.00;97488.53;106698;1275;22731;-76
2023/05/17 04:16:33;;;;;;;3.80;3.40;;;;;;;10.72;100.00;97492.83;106794;1275;24468;-78
2023/05/17 04:19:02;;;;;;;3.50;3.20;;;;;;;10.73;100.00;97498.20;106760;1275;25490;-80
2023/05/17 04:21:30;;;;;;;3.80;3.30;;;;;;;10.75;100.00;97505.91;106685;1275;25233;-79
2023/05/17 04:23:58;;;;;;;6.00;4.10;;;;;;;10.75;100.00;97509.55;106719;1275;25386;-79
2023/05/17 04:26:27;;;;;;;4.10;3.50;;;;;;;10.79;100.00;97512.74;107015;1275;22524;-79
2023/05/17 04:28:55;;;;;;;4.40;3.90;;;;;;;10.77;100.00;97507.45;106886;1275;22579;-78
2023/05/17 04:31:23;;;;;;;5.10;4.00;;;;;;;10.77;100.00;97511.73;107005;1275;24198;-75
2023/05/17 04:33:52;;;;;;;6.60;4.90;;;;;;;10.77;100.00;97519.15;106803;1273;22665;-77
2023/05/17 04:36:21;;;;;;;8.40;4.70;;;;;;;10.77;100.00;97528.75;106727;1276;22532;-78
2023/05/17 04:38:50;;;;;;;7.60;5.70;;;;;;;10.80;100.00;97533.73;106920;1276;22531;-76
2023/05/17 04:41:21;;;;;;;8.90;6.10;;;;;;;10.80;100.00;97530.70;106729;1276;22576;-78
2023/05/17 04:43:49;;;;;;;6.50;4.90;;;;;;;10.81;100.00;97536.50;106874;1276;22829;-77
2023/05/17 04:46:22;;;;;;;6.80;4.60;;;;;;;10.83;100.00;97539.90;106442;1276;22540;-79
2023/05/17 04:48:50;;;;;;;6.80;4.00;;;;;;;10.84;100.00;97540.10;106756;1276;22651;-77
2023/05/17 04:51:18;;;;;;;5.50;3.90;;;;;;;10.86;100.00;97546.73;106843;1276;22741;-79
2023/05/17 04:53:46;;;;;;;4.00;3.60;;;;;;;10.86;100.00;97542.84;106746;1276;22622;-78
2023/05/17 04:56:17;;;;;;;4.60;3.10;;;;;;;10.86;100.00;97544.84;106709;1276;22540;-78
2023/05/17 04:58:45;;;;;;;5.00;3.70;;;;;;;10.89;100.00;97546.98;106586;1276;24331;-78
2023/05/17 05:01:14;;;;;;;4.00;3.70;;;;;;;10.89;100.00;97549.02;106516;1276;23040;-80
2023/05/17 05:03:42;;;;;;;3.20;2.90;;;;;;;10.90;100.00;97547.65;106662;1276;24074;-77
2023/05/17 05:06:11;;;;;;;3.80;3.30;;;;;;;10.92;100.00;97549.13;106405;1271;22715;-78
2023/05/17 05:08:39;;;;;;;4.00;3.40;;;;;;;10.94;100.00;97550.74;106361;1276;25329;-79
2023/05/17 05:11:09;;;;;;;3.20;2.90;;;;;;;10.96;100.00;97550.31;106749;1276;22537;-78
2023/05/17 05:13:37;;;;;;;3.20;2.90;;;;;;;10.96;100.00;97550.63;106740;1276;25060;-78
2023/05/17 05:16:06;;;;;;;3.80;3.30;;;;;;;10.94;100.00;97550.62;106766;1269;22602;-78
2023/05/17 05:18:35;;;;;;;3.30;2.90;;;;;;;10.96;100.00;97547.68;106704;1276;25340;-79
2023/05/17 05:21:03;;;;;;;3.90;3.20;;;;;;;10.95;100.00;97548.60;106737;1276;25748;-78
2023/05/17 05:23:32;;;;;;;5.30;3.10;;;;;;;10.95;100.00;97551.58;106419;1276;25400;-78
2023/05/17 05:26:00;;;;;;;5.10;4.00;;;;;;;10.96;100.00;97553.77;106455;1276;22942;-78
2023/05/17 05:28:28;;;;;;;5.30;4.70;;;;;;;10.96;100.00;97558.95;106672;1276;22651;-79
2023/05/17 05:31:00;;;;;;;4.50;4.10;;;;;;;10.94;100.00;97558.70;106708;1276;22586;-78
2023/05/17 05:33:33;;;;;;;4.50;3.80;;;;;;;10.95;100.00;97559.88;106728;1276;26599;-81
2023/05/17 05:36:02;;;;;;;4.30;3.40;;;;;;;10.94;100.00;97562.98;106719;1276;22544;-80
2023/05/17 05:38:30;;;;;;;3.90;3.30;;;;;;;10.95;100.00;97564.41;106945;1275;24432;-78
2023/05/17 05:40:59;;;;;;;4.60;3.60;;;;;;;10.93;100.00;97566.50;107254;1272;22524;-78
2023/05/17 05:43:27;;;;;;;4.30;3.70;;;;;;;10.94;100.00;97567.16;106974;1276;22544;-78
2023/05/17 05:45:55;;;;;;;4.20;3.60;;;;;;;10.94;100.00;97566.79;106978;1275;22814;-78
2023/05/17 05:48:23;;;;;;;5.20;4.10;;;;;;;10.96;100.00;97572.36;106924;1275;22641;-78
2023/05/17 05:50:52;;;;;;;4.70;4.10;;;;;;;10.99;100.00;97578.90;106469;1275;177572;-77
2023/05/17 05:53:20;;;;;;;4.30;3.60;;;;;;;10.97;100.00;97579.82;106829;1275;25277;-78
2023/05/17 05:55:51;;;;;;;4.10;3.70;;;;;;;10.99;100.00;97586.61;106802;1275;22519;-78
2023/05/17 05:58:20;;;;;;;4.40;4.00;;;;;;;10.98;100.00;97585.34;106796;1275;22607;-78
2023/05/17 06:00:48;;;;;;;4.30;3.50;;;;;;;11.01;100.00;97587.00;106779;1275;22526;-78
2023/05/17 06:03:16;;;;;;;5.80;3.70;;;;;;;11.00;100.00;97591.66;106882;1275;25421;-78
2023/05/17 06:05:44;;;;;;;4.90;3.90;;;;;;;10.97;100.00;97597.24;106863;1275;25079;-78
2023/05/17 06:08:12;;;;;;;5.10;3.20;;;;;;;10.95;100.00;97602.42;106918;1275;24179;-78
2023/05/17 06:10:40;;;;;;;3.40;3.10;;;;;;;10.95;100.00;97600.04;106879;1275;24219;-78
2023/05/17 06:13:08;;;;;;;4.00;3.50;;;;;;;10.94;100.00;97600.23;106885;1275;22525;-78
2023/05/17 06:15:36;;;;;;;4.20;3.80;;;;;;;10.93;100.00;97603.39;107188;1272;22528;-78
2023/05/17 06:18:04;;;;;;;3.70;3.30;;;;;;;10.93;100.00;97609.58;106992;1275;22570;-78
2023/05/17 06:20:32;;;;;;;4.30;3.90;;;;;;;10.93;100.00;97613.58;106965;1275;22781;-79
2023/05/17 06:23:00;;;;;;;4.40;3.80;;;;;;;10.89;100.00;97614.23;106972;1275;22524;-78
2023/05/17 06:25:28;;;;;;;4.40;3.30;;;;;;;10.88;100.00;97613.67;107023;1275;22524;-78
2023/05/17 06:27:56;;;;;;;3.60;3.30;;;;;;;10.87;100.00;97615.81;107056;1275;22535;-78
2023/05/17 06:30:26;;;;;;;4.00;3.30;;;;;;;10.85;100.00;97620.23;107083;1275;22983;-78
2023/05/17 06:32:55;;;;;;;4.20;3.50;;;;;;;10.85;100.00;97628.32;107110;1275;22518;-78
2023/05/17 06:35:23;;;;;;;3.20;2.90;;;;;;;10.85;100.00;97635.05;107230;1275;24501;-78
2023/05/17 06:37:51;;;;;;;3.30;2.90;;;;;;;10.86;100.00;97639.02;107231;1275;22528;-78
2023/05/17 06:40:19;;;;;;;3.20;2.80;;;;;;;10.88;100.00;97642.80;107114;1272;22521;-78
2023/05/17 06:42:47;;;;;;;3.00;2.70;;;;;;;10.86;100.00;97648.84;106832;1275;25312;-78
2023/05/17 06:45:15;;;;;;;3.60;2.70;;;;;;;10.81;100.00;97648.61;106820;1261;22643;-78
2023/05/17 06:47:43;;;;;;;3.30;2.90;;;;;;;10.78;100.00;97652.31;106616;1276;25352;-78
2023/05/17 06:50:11;;;;;;;2.80;2.60;;;;;;;10.75;100.00;97654.53;106889;1263;25432;-78
2023/05/17 06:52:39;;;;;;;3.40;2.80;;;;;;;10.74;100.00;97653.04;106604;1275;22721;-79
2023/05/17 06:55:08;;;;;;;3.10;2.90;;;;;;;10.72;100.00;97652.55;106819;1273;24252;-78
2023/05/17 06:57:36;;;;;;;3.30;3.00;;;;;;;10.71;100.00;97653.34;106894;1275;23902;-79
2023/05/17 07:00:09;;;;;;;3.10;2.80;;;;;;;10.70;100.00;97655.52;106968;1275;22643;-79
2023/05/17 07:02:38;;;;;;;3.20;2.90;;;;;;;10.67;100.00;97656.11;106893;1275;22533;-78
2023/05/17 07:05:07;;;;;;;4.40;3.60;;;;;;;10.68;100.00;97660.41;106831;1275;24112;-79
2023/05/17 07:07:35;;;;;;;4.00;3.60;;;;;;;10.67;100.00;97664.95;106873;1275;22511;-80
2023/05/17 07:10:04;;;;;;;4.10;3.30;;;;;;;10.67;100.00;97666.61;106813;1275;22642;-78
2023/05/17 07:12:33;;;;;;;4.10;3.70;;;;;;;10.69;100.00;97665.64;106939;1275;25444;-78
2023/05/17 07:15:01;;;;;;;3.60;3.30;;;;;;;10.67;100.00;97668.09;106857;1275;24055;-79
2023/05/17 07:17:29;;;;;;;4.00;3.70;;;;;;;10.67;100.00;97682.20;106841;1275;25498;-79
2023/05/17 07:19:57;;;;;;;3.70;3.30;;;;;;;10.67;100.00;97683.23;106798;1269;24706;-80
2023/05/17 07:22:26;;;;;;;3.20;2.90;;;;;;;10.65;100.00;97678.11;106976;1275;22585;-79
2023/05/17 07:24:54;;;;;;;4.10;3.70;;;;;;;10.66;100.00;97679.57;106762;1275;22547;-79
2023/05/17 07:27:22;;;;;;;5.00;3.90;;;;;;;10.66;100.00;97681.70;106884;1275;23518;-80
2023/05/17 07:29:50;;;;;;;4.20;3.80;;;;;;;10.62;100.00;97687.69;106825;1270;22580;-80
2023/05/17 07:32:18;;;;;;;4.30;3.90;;;;;;;10.61;100.00;97696.93;106829;1275;22555;-79
2023/05/17 07:34:46;;;;;;;6.60;3.80;;;;;;;10.63;100.00;97709.41;106922;1270;24637;-78
2023/05/17 07:37:14;;;;;;;4.50;3.50;;;;;;;10.59;100.00;97710.03;106843;1275;22661;-78
2023/05/17 07:39:42;;;;;;;5.30;3.70;;;;;;;10.57;100.00;97710.50;106857;1275;25217;-80
2023/05/17 07:42:10;;;;;;;5.10;3.70;;;;;;;10.57;100.00;97712.77;106860;1275;22525;-79
2023/05/17 07:44:39;;;;;;;4.20;3.80;;;;;;;10.54;100.00;97716.64;106953;1275;23327;-79
2023/05/17 07:47:07;;;;;;;5.00;4.50;;;;;;;10.54;100.00;97719.09;106620;1275;22518;-80
2023/05/17 07:49:35;;;;;;;5.20;4.60;;;;;;;10.49;100.00;97723.60;106914;1275;24244;-78
2023/05/17 07:52:03;;;;;;;6.60;5.30;;;;;;;10.44;100.00;97725.54;106920;1275;24282;-80
2023/05/17 07:54:32;;;;;;;6.30;5.20;;;;;;;10.41;100.00;97729.96;106905;1275;25385;-80
2023/05/17 07:57:00;;;;;;;6.70;6.10;;;;;;;10.37;100.00;97736.25;106891;1275;25386;-81
2023/05/17 07:59:28;;;;;;;6.80;5.80;;;;;;;10.33;100.00;97737.66;107162;1275;22616;-78
2023/05/17 08:01:56;;;;;;;6.10;5.50;;;;;;;10.35;100.00;97736.98;106835;1275;22625;-78
2023/05/17 08:04:24;;;;;;;5.50;5.00;;;;;;;10.33;100.00;97732.83;106806;1275;26583;-79
2023/05/17 08:06:54;;;;;;;5.10;4.40;;;;;;;10.35;100.00;97739.30;106736;1275;22527;-78
2023/05/17 08:09:22;;;;;;;5.10;4.40;;;;;;;10.31;100.00;97738.47;106901;1275;22633;-79
2023/05/17 08:11:50;;;;;;;5.00;4.50;;;;;;;10.31;100.00;97748.48;106841;1275;23028;-80
2023/05/17 08:14:21;;;;;;;4.40;3.80;;;;;;;10.29;100.00;97749.52;106905;1275;24048;-81
2023/05/17 08:16:50;;;;;;;4.90;4.20;;;;;;;10.27;100.00;97752.70;106987;1275;22608;-81
2023/05/17 08:19:18;;;;;;;5.30;4.20;;;;;;;10.24;100.00;97760.45;106910;1275;24220;-80
2023/05/17 08:21:48;;;;;;;4.80;3.50;;;;;;;10.21;100.00;97755.05;107145;1273;24248;-80
2023/05/17 08:24:16;;;;;;;4.50;3.60;;;;;;;10.19;100.00;97759.63;107124;1275;22907;-80
2023/05/17 08:26:44;;;;;;;4.60;4.20;;;;;;;10.19;100.00;97764.41;107071;1275;22554;-81
2023/05/17 08:29:12;;;;;;;5.40;4.90;;;;;;;10.16;100.00;97771.98;107038;1275;24717;-79
2023/05/17 08:31:41;;;;;;;4.90;4.40;;;;;;;10.07;100.00;97776.19;107075;1275;22937;-79
2023/05/17 08:34:09;;;;;;;5.80;5.10;;;;;;;10.02;100.00;97781.27;107086;1275;22735;-79
2023/05/17 08:36:38;;;;;;;6.70;5.10;;;;;;;10.00;100.00;97786.20;107117;1255;26640;-80
2023/05/17 08:39:07;;;;;;;5.50;5.00;;;;;;;9.97;100.00;97789.77;107073;1275;22919;-80
2023/05/17 08:41:35;;;;;;;6.80;5.70;;;;;;;9.89;100.00;97793.18;107041;1275;24320;-81
2023/05/17 08:44:04;;;;;;;9.00;6.70;;;;;;;9.84;100.00;97798.27;107063;1275;24332;-80
2023/05/17 08:46:33;;;;;;;8.40;7.20;;;;;;;9.79;100.00;97797.84;107151;1275;22647;-80
2023/05/17 08:49:04;;;;;;;8.40;7.50;;;;;;;9.73;100.00;97804.77;107111;1275;22774;-80
2023/05/17 08:51:35;;;;;;;9.30;8.40;;;;;;;9.63;100.00;97805.48;106950;1275;22565;-83
2023/05/17 08:54:07;;;;;;;10.20;9.20;;;;;;;9.58;100.00;97809.32;107103;1275;24190;-82
2023/05/17 08:56:41;;;;;;;10.70;9.50;;;;;;;9.52;100.00;97803.14;107174;1275;22652;-83
2023/05/17 08:59:09;;;;;;;12.50;11.30;;;;;;;9.51;100.00;97803.73;107052;1275;22653;-83
2023/05/17 09:01:40;;;;;;;11.30;10.30;;;;;;;9.43;100.00;97797.23;107102;1275;22653;-83
2023/05/17 09:04:10;;;;;;;10.50;9.20;;;;;;;9.36;100.00;97794.89;107136;1275;22567;-83
2023/05/17 09:06:39;;;;;;;12.50;9.60;;;;;;;9.30;100.00;97801.14;107180;1275;24221;-84
2023/05/17 09:09:07;;;;;;;9.60;8.70;;;;;;;9.27;100.00;97798.20;107125;1275;22673;-82
2023/05/17 09:11:35;;;;;;;9.50;8.10;;;;;;;9.26;100.00;97805.67;107044;1275;24378;-83
2023/05/17 09:14:06;;;;;;;8.60;7.70;;;;;;;9.25;100.00;97810.00;107022;1275;22525;-83
2023/05/17 09:16:36;;;;;;;9.50;7.70;;;;;;;9.25;100.00;97814.04;107087;1275;22662;-84
2023/05/17 09:19:06;;;;;;;9.00;7.70;;;;;;;9.22;100.00;97820.58;107109;1276;23033;-85
2023/05/17 09:21:35;;;;;;;8.10;7.30;;;;;;;9.19;100.00;97823.59;107180;1275;22601;-84
2023/05/17 09:24:03;;;;;;;8.20;7.50;;;;;;;9.17;100.00;97827.75;107777;1275;22525;-84
2023/05/17 09:26:43;;;;;;;7.60;5.90;;;;;;;9.13;100.00;97831.63;107115;1275;22535;-83
2023/05/17 09:29:15;;;;;;;9.30;6.30;;;;;;;9.13;100.00;97837.70;107072;1275;22664;-83
2023/05/17 09:31:43;;;;;;;8.10;5.50;;;;;;;9.15;100.00;97834.34;107128;1275;22952;-83
2023/05/17 09:34:11;;;;;;;7.10;6.40;;;;;;;9.18;100.00;97835.75;107077;1275;22536;-79
2023/05/17 09:36:43;;;;;;;8.50;6.30;;;;;;;9.17;100.00;97843.29;107029;1275;22522;-80
2023/05/17 09:39:13;;;;;;;6.10;5.50;;;;;;;9.15;100.00;97836.55;107097;1275;25271;-80
2023/05/17 09:41:45;;;;;;;7.30;6.60;;;;;;;9.17;100.00;97838.13;107104;1275;25316;-80
2023/05/17 09:44:15;;;;;;;7.30;6.60;;;;;;;9.17;100.00;97839.23;107141;1275;22645;-80
2023/05/17 09:46:46;;;;;;;7.50;6.80;;;;;;;9.17;100.00;97840.48;106823;1275;22533;-81
2023/05/17 09:49:16;;;;;;;7.80;7.10;;;;;;;9.16;100.00;97838.63;107172;1275;22511;-81
2023/05/17 09:51:49;;;;;;;7.30;6.60;;;;;;;9.15;100.00;97843.30;107164;1275;25112;-81
2023/05/17 09:54:18;;;;;;;7.50;6.80;;;;;;;9.16;100.00;97840.40;107101;1276;23906;-81
2023/05/17 09:56:53;;;;;;;6.60;6.00;;;;;;;9.18;100.00;97846.29;107034;1276;22534;-82
2023/05/17 09:59:27;;;;;;;7.50;6.80;;;;;;;9.16;100.00;97849.55;107103;1275;24075;-79
2023/05/17 10:01:56;;;;;;;7.40;6.70;;;;;;;9.14;100.00;97851.83;107110;1275;22531;-79
2023/05/17 10:04:33;;;;;;;7.40;6.40;;;;;;;9.12;100.00;97858.52;106836;1275;22653;-79
2023/05/17 10:07:05;;;;;;;6.80;6.20;;;;;;;9.12;100.00;97858.19;106989;1276;25322;-80
2023/05/17 10:09:36;;;;;;;7.30;6.50;;;;;;;9.16;100.00;97861.48;107067;1275;22568;-80
2023/05/17 10:12:06;;;;;;;6.60;5.80;;;;;;;9.18;100.00;97862.95;107118;1275;22639;-80
2023/05/17 10:14:35;;;;;;;6.00;5.40;;;;;;;9.17;100.00;97861.47;107030;1275;22572;-79
2023/05/17 10:17:04;;;;;;;6.10;5.50;;;;;;;9.15;100.00;97865.95;107052;1275;25329;-79
2023/05/17 10:19:32;;;;;;;6.30;5.70;;;;;;;9.16;100.00;97870.20;107011;1275;24310;-78
2023/05/17 10:22:01;;;;;;;6.10;5.50;;;;;;;9.19;100.00;97871.66;106802;1275;22630;-78
2023/05/17 10:24:52;;;;;;;5.60;4.30;;;;;;;9.20;100.00;97875.07;106806;1275;22602;-78
2023/05/17 10:27:21;;;;;;;5.50;5.00;;;;;;;9.28;100.00;97876.31;107107;1275;24410;-80
2023/05/17 10:29:49;;;;;;;5.50;5.00;;;;;;;9.28;100.00;97881.68;107028;1275;24301;-80
2023/05/17 10:32:21;;;;;;;6.00;4.80;;;;;;;9.28;100.00;97883.46;107115;1254;22521;-80
2023/05/17 10:34:51;;;;;;;5.80;5.20;;;;;;;9.29;100.00;97879.73;107027;1275;22531;-78
2023/05/17 10:37:37;;;;;;;6.40;5.30;;;;;;;9.27;100.00;97881.38;107060;1275;22520;-77
2023/05/17 10:40:12;;;;;;;6.00;5.40;;;;;;;9.24;100.00;97887.81;106811;1275;24397;-77
2023/05/17 10:42:51;;;;;;;5.70;4.90;;;;;;;9.27;100.00;97888.38;107144;1257;22534;-78
2023/05/17 10:45:22;;;;;;;6.20;5.00;;;;;;;9.26;100.00;97889.85;107074;1275;25340;-77
2023/05/17 10:47:51;;;;;;;6.30;5.70;;;;;;;9.29;100.00;97893.73;107095;1275;23310;-77
2023/05/17 10:50:24;;;;;;;5.80;5.20;;;;;;;9.29;100.00;97894.73;106996;1275;22670;-78
2023/05/17 10:52:54;;;;;;;6.90;5.20;;;;;;;9.32;100.00;97898.14;106789;1275;22609;-77
2023/05/17 10:55:24;;;;;;;6.40;5.60;;;;;;;9.35;100.00;97892.55;107146;1275;22568;-78
2023/05/17 10:58:15;;;;;;;6.80;6.00;;;;;;;9.31;100.00;97900.46;107119;1275;22532;-78
2023/05/17 11:00:48;;;;;;;5.80;5.10;;;;;;;9.28;100.00;97905.95;107051;1275;22538;-77
2023/05/17 11:03:19;;;;;;;6.30;5.00;;;;;;;9.26;100.00;97909.63;107118;1275;24314;-77
2023/05/17 11:06:09;;;;;;;6.40;5.60;;;;;;;9.27;100.00;97917.41;106829;1275;25262;-77
2023/05/17 11:09:15;;;;;;;7.00;5.50;;;;;;;9.27;100.00;97918.96;106996;1275;22564;-78
2023/05/17 11:12:07;;;;;;;7.10;6.20;;;;;;;9.25;100.00;97925.98;107046;1275;22611;-78
2023/05/17 11:14:44;;;;;;;6.70;5.90;;;;;;;9.18;100.00;97930.95;106901;1275;24231;-77
2023/05/17 11:17:53;;;;;;;7.60;6.30;;;;;;;9.14;100.00;97929.52;106830;1275;22527;-78
2023/05/17 11:20:24;;;;;;;8.20;6.70;;;;;;;9.12;100.00;97928.61;106830;1275;25342;-79
2023/05/17 11:22:57;;;;;;;7.80;6.60;;;;;;;9.07;100.00;97925.18;107127;1275;22585;-78
2023/05/17 11:25:34;;;;;;;7.10;6.40;;;;;;;9.06;100.00;97928.01;107086;1275;23939;-78
2023/05/17 11:28:18;;;;;;;9.90;8.10;;;;;;;9.02;100.00;97928.31;107136;1275;24436;-78
2023/05/17 11:30:50;;;;;;;7.90;6.70;;;;;;;8.97;100.00;97935.96;107060;1275;23924;-76
2023/05/17 11:33:21;;;;;;;7.20;6.10;;;;;;;8.96;100.00;97934.39;107109;1275;22638;-80